createdAt,value
2022-09-12T00:00:03.311Z,15.10
2022-09-12T00:02:32.305Z,15.10
2022-09-12T00:05:00.272Z,15.10
2022-09-12T00:07:27.920Z,15.00
2022-09-12T00:09:55.589Z,15.00
2022-09-12T00:12:23.206Z,15.00
2022-09-12T00:14:50.865Z,15.00
2022-09-12T00:17:18.517Z,15.00
2022-09-12T00:19:47.513Z,15.30
2022-09-12T00:22:15.177Z,15.00
2022-09-12T00:24:42.801Z,14.90
2022-09-12T00:27:10.501Z,15.20
2022-09-12T00:29:38.302Z,14.90
2022-09-12T00:32:05.982Z,14.90
2022-09-12T00:34:33.665Z,15.20
2022-09-12T00:37:02.650Z,14.90
2022-09-12T00:39:30.330Z,14.90
2022-09-12T00:41:57.977Z,14.90
2022-09-12T00:44:45.693Z,14.90
2022-09-12T00:47:16.145Z,14.80
2022-09-12T00:49:46.045Z,14.90
2022-09-12T00:52:17.039Z,14.90
2022-09-12T00:54:46.553Z,14.90
2022-09-12T00:57:15.524Z,15.20
2022-09-12T00:59:47.874Z,14.90
2022-09-12T01:02:15.868Z,15.00
2022-09-12T01:04:44.426Z,14.80
2022-09-12T01:07:12.639Z,15.00
2022-09-12T01:09:45.374Z,14.90
2022-09-12T01:12:14.576Z,14.80
2022-09-12T01:14:42.330Z,14.80
2022-09-12T01:17:12.656Z,14.80
2022-09-12T01:19:58.058Z,14.80
2022-09-12T01:22:41.350Z,14.70
2022-09-12T01:25:12.600Z,14.80
2022-09-12T01:27:47.880Z,14.90
2022-09-12T01:30:39.214Z,14.70
2022-09-12T01:33:24.758Z,14.70
2022-09-12T01:36:01.666Z,14.70
2022-09-12T01:38:33.126Z,14.60
2022-09-12T01:41:03.314Z,14.60
2022-09-12T01:43:35.256Z,14.60
2022-09-12T01:46:07.676Z,14.60
2022-09-12T01:48:37.096Z,14.50
2022-09-12T01:51:08.712Z,14.60
2022-09-12T01:53:39.088Z,14.60
2022-09-12T01:56:09.280Z,15.00
2022-09-12T01:58:40.553Z,14.60
2022-09-12T02:01:10.693Z,14.50
2022-09-12T02:03:41.455Z,14.50
2022-09-12T02:06:13.860Z,14.50
2022-09-12T02:08:45.356Z,14.50
2022-09-12T02:11:13.529Z,14.90
2022-09-12T02:13:43.087Z,14.40
2022-09-12T02:16:12.266Z,14.40
2022-09-12T02:18:41.246Z,14.50
2022-09-12T02:21:10.240Z,14.40
2022-09-12T02:23:39.244Z,14.80
2022-09-12T02:26:09.864Z,14.40
2022-09-12T02:28:39.557Z,14.30
2022-09-12T02:31:13.643Z,14.30
2022-09-12T02:33:46.276Z,14.30
2022-09-12T02:36:17.805Z,14.40
2022-09-12T02:38:46.788Z,14.30
2022-09-12T02:41:16.356Z,14.30
2022-09-12T02:43:44.069Z,14.30
2022-09-12T02:46:14.191Z,14.20
2022-09-12T02:48:43.653Z,14.70
2022-09-12T02:51:11.829Z,14.30
2022-09-12T02:53:41.528Z,14.20
2022-09-12T02:56:11.834Z,14.20
2022-09-12T02:58:39.501Z,14.10
2022-09-12T03:01:11.113Z,14.30
2022-09-12T03:03:55.039Z,14.00
2022-09-12T03:06:26.776Z,14.10
2022-09-12T03:09:00.338Z,14.10
2022-09-12T03:11:40.818Z,14.10
2022-09-12T03:14:14.180Z,14.00
2022-09-12T03:16:44.861Z,14.00
2022-09-12T03:19:19.884Z,14.20
2022-09-12T03:21:53.688Z,14.00
2022-09-12T03:24:25.442Z,14.10
2022-09-12T03:26:55.940Z,14.00
2022-09-12T03:29:25.535Z,14.30
2022-09-12T03:31:54.115Z,14.00
2022-09-12T03:34:22.459Z,14.00
2022-09-12T03:36:50.270Z,14.00
2022-09-12T03:39:18.147Z,14.00
2022-09-12T03:41:47.129Z,14.00
2022-09-12T03:44:14.729Z,14.40
2022-09-12T03:46:42.375Z,14.00
2022-09-12T03:49:10.729Z,14.00
2022-09-12T03:51:38.364Z,14.00
2022-09-12T03:54:06.332Z,14.00
2022-09-12T03:56:34.502Z,13.90
2022-09-12T03:59:05.404Z,14.00
2022-09-12T04:01:33.521Z,13.90
2022-09-12T04:04:01.216Z,13.90
2022-09-12T04:06:29.712Z,13.80
2022-09-12T04:08:57.338Z,13.80
2022-09-12T04:11:24.999Z,13.80
2022-09-12T04:13:52.645Z,13.80
2022-09-12T04:16:21.960Z,13.80
2022-09-12T04:18:49.610Z,14.10
2022-09-12T04:21:18.376Z,13.80
2022-09-12T04:23:46.425Z,13.80
2022-09-12T04:26:14.670Z,13.80
2022-09-12T04:28:42.478Z,13.80
2022-09-12T04:31:13.883Z,13.80
2022-09-12T04:33:43.031Z,13.80
2022-09-12T04:36:12.448Z,13.80
2022-09-12T04:38:40.079Z,13.80
2022-09-12T04:41:11.686Z,13.80
2022-09-12T04:43:39.318Z,13.80
2022-09-12T04:46:07.621Z,13.70
2022-09-12T04:48:35.483Z,13.70
2022-09-12T04:51:13.884Z,13.70
2022-09-12T04:53:42.036Z,13.90
2022-09-12T04:56:12.376Z,13.80
2022-09-12T04:58:40.004Z,13.90
2022-09-12T05:01:08.649Z,13.70
2022-09-12T05:03:38.886Z,13.70
2022-09-12T05:06:07.875Z,13.80
2022-09-12T05:08:37.108Z,13.70
2022-09-12T05:11:05.983Z,13.70
2022-09-12T05:13:34.002Z,13.70
2022-09-12T05:16:02.517Z,14.10
2022-09-12T05:18:31.989Z,14.00
2022-09-12T05:21:00.227Z,13.80
2022-09-12T05:23:27.940Z,13.80
2022-09-12T05:25:58.611Z,13.80
2022-09-12T05:28:29.473Z,13.70
2022-09-12T05:31:03.424Z,13.80
2022-09-12T05:33:31.505Z,13.70
2022-09-12T05:35:59.435Z,13.70
2022-09-12T05:38:29.017Z,13.70
2022-09-12T05:41:05.005Z,13.70
2022-09-12T05:43:33.017Z,13.70
2022-09-12T05:46:03.616Z,13.70
2022-09-12T05:48:31.482Z,13.70
2022-09-12T05:51:02.515Z,13.70
2022-09-12T05:53:30.365Z,13.80
2022-09-12T05:56:07.156Z,13.80
2022-09-12T05:58:35.295Z,13.80
2022-09-12T06:01:03.905Z,14.00
2022-09-12T06:03:31.579Z,13.80
2022-09-12T06:06:02.590Z,13.80
2022-09-12T06:08:30.499Z,13.90
2022-09-12T06:11:02.238Z,14.00
2022-09-12T06:13:31.863Z,14.00
2022-09-12T06:16:03.826Z,13.90
2022-09-12T06:18:31.434Z,13.90
2022-09-12T06:20:59.166Z,14.00
2022-09-12T06:23:27.472Z,13.90
2022-09-12T06:25:55.169Z,14.00
2022-09-12T06:28:22.825Z,14.00
2022-09-12T06:30:51.928Z,14.10
2022-09-12T06:33:19.856Z,14.20
2022-09-12T06:35:47.525Z,14.10
2022-09-12T06:38:15.930Z,14.20
2022-09-12T06:40:44.947Z,14.10
2022-09-12T06:43:15.423Z,14.20
2022-09-12T06:45:49.293Z,14.20
2022-09-12T06:48:20.036Z,14.30
2022-09-12T06:50:56.080Z,14.20
2022-09-12T06:53:23.694Z,14.50
2022-09-12T06:55:55.926Z,14.20
2022-09-12T06:58:23.574Z,14.50
2022-09-12T07:00:52.035Z,14.60
2022-09-12T07:03:23.003Z,14.30
2022-09-12T07:05:50.785Z,14.60
2022-09-12T07:08:18.420Z,14.40
2022-09-12T07:10:46.351Z,14.40
2022-09-12T07:13:14.133Z,14.40
2022-09-12T07:15:41.745Z,14.60
2022-09-12T07:18:10.132Z,14.50
2022-09-12T07:20:39.277Z,14.50
2022-09-12T07:23:06.909Z,14.60
2022-09-12T07:25:34.538Z,14.60
2022-09-12T07:28:02.294Z,14.70
2022-09-12T07:30:29.930Z,14.70
2022-09-12T07:32:57.569Z,14.90
2022-09-12T07:35:25.828Z,14.90
2022-09-12T07:37:57.242Z,14.70
2022-09-12T07:40:24.886Z,14.80
2022-09-12T07:42:52.639Z,14.80
2022-09-12T07:45:20.256Z,14.80
2022-09-12T07:47:47.913Z,14.80
2022-09-12T07:50:15.629Z,15.30
2022-09-12T07:52:43.389Z,14.90
2022-09-12T07:55:12.347Z,15.10
2022-09-12T07:57:39.993Z,15.00
2022-09-12T08:00:08.853Z,15.00
2022-09-12T08:02:37.028Z,15.00
2022-09-12T08:05:04.978Z,15.00
2022-09-12T08:07:34.092Z,15.00
2022-09-12T08:10:01.724Z,15.00
2022-09-12T08:12:32.208Z,15.30
2022-09-12T08:14:59.833Z,15.50
2022-09-12T08:17:29.836Z,15.10
2022-09-12T08:19:57.454Z,15.10
2022-09-12T08:22:25.841Z,15.40
2022-09-12T08:24:53.610Z,15.10
2022-09-12T08:27:21.363Z,15.20
2022-09-12T08:29:50.343Z,15.20
2022-09-12T08:32:18.008Z,15.20
2022-09-12T08:34:48.055Z,15.20
2022-09-12T08:37:15.724Z,15.40
2022-09-12T08:39:43.901Z,15.20
2022-09-12T08:42:17.964Z,15.40
2022-09-12T08:44:54.841Z,15.60
2022-09-12T08:47:24.682Z,15.30
2022-09-12T08:49:56.319Z,15.30
2022-09-12T08:52:26.531Z,15.30
2022-09-12T08:54:56.337Z,15.50
2022-09-12T08:57:24.178Z,15.40
2022-09-12T08:59:53.957Z,15.40
2022-09-12T09:02:34.474Z,15.40
2022-09-12T09:05:06.440Z,15.40
2022-09-12T09:07:58.529Z,15.40
2022-09-12T09:10:29.262Z,15.40
2022-09-12T09:13:00.746Z,15.50
2022-09-12T09:15:35.683Z,15.50
2022-09-12T09:18:06.320Z,15.80
2022-09-12T09:20:36.578Z,15.50
2022-09-12T09:23:07.833Z,15.50
2022-09-12T09:25:39.376Z,15.60
2022-09-12T09:28:08.537Z,15.80
2022-09-12T09:30:37.693Z,15.80
2022-09-12T09:33:06.037Z,15.60
2022-09-12T09:35:39.177Z,15.60
2022-09-12T09:38:12.798Z,15.50
2022-09-12T09:40:46.319Z,15.50
2022-09-12T09:43:19.949Z,15.70
2022-09-12T09:45:49.469Z,15.70
2022-09-12T09:48:19.337Z,15.90
2022-09-12T09:50:48.094Z,15.80
2022-09-12T09:53:23.110Z,15.80
2022-09-12T09:55:50.944Z,15.80
2022-09-12T09:58:28.881Z,15.80
2022-09-12T10:01:00.702Z,15.70
2022-09-12T10:03:33.018Z,15.80
2022-09-12T10:06:02.720Z,15.90
2022-09-12T10:08:31.975Z,15.90
2022-09-12T10:11:01.784Z,15.90
2022-09-12T10:13:37.254Z,16.00
2022-09-12T10:16:07.588Z,16.00
2022-09-12T10:18:36.651Z,16.10
2022-09-12T10:21:13.590Z,16.10
2022-09-12T10:23:41.515Z,16.10
2022-09-12T10:26:10.994Z,16.10
2022-09-12T10:28:41.143Z,16.20
2022-09-12T10:31:11.395Z,16.20
2022-09-12T10:33:41.980Z,16.20
2022-09-12T10:36:11.272Z,16.20
2022-09-12T10:38:38.977Z,16.30
2022-09-12T10:41:08.297Z,16.30
2022-09-12T10:43:37.284Z,16.40
2022-09-12T10:46:29.501Z,16.40
2022-09-12T10:49:22.324Z,16.50
2022-09-12T10:51:50.321Z,16.50
2022-09-12T10:54:19.070Z,16.50
2022-09-12T10:56:52.670Z,16.50
2022-09-12T10:59:25.212Z,16.60
2022-09-12T11:01:56.903Z,16.60
2022-09-12T11:04:27.575Z,16.60
2022-09-12T11:07:15.172Z,16.70
2022-09-12T11:09:47.617Z,16.70
2022-09-12T11:12:19.188Z,16.70
2022-09-12T11:14:52.509Z,16.80
2022-09-12T11:17:26.161Z,16.80
2022-09-12T11:20:02.420Z,16.80
2022-09-12T11:22:35.932Z,16.90
2022-09-12T11:25:13.910Z,16.90
2022-09-12T11:27:57.202Z,16.90
2022-09-12T11:30:24.860Z,16.90
2022-09-12T11:33:06.527Z,17.00
2022-09-12T11:35:35.289Z,17.00
2022-09-12T11:38:24.481Z,17.00
2022-09-12T11:40:55.630Z,17.00
2022-09-12T11:43:26.862Z,17.10
2022-09-12T11:45:54.984Z,17.10
2022-09-12T11:48:28.993Z,17.20
2022-09-12T11:50:57.854Z,17.20
2022-09-12T11:53:28.881Z,17.30
2022-09-12T11:55:59.491Z,17.30
2022-09-12T11:58:29.178Z,17.40
2022-09-12T12:00:58.654Z,17.40
2022-09-12T12:03:31.838Z,17.40
2022-09-12T12:06:04.128Z,17.50
2022-09-12T12:08:32.498Z,17.60
2022-09-12T12:11:01.306Z,17.60
2022-09-12T12:13:30.649Z,17.70
2022-09-12T12:16:00.019Z,17.80
2022-09-12T12:18:29.898Z,17.80
2022-09-12T12:20:57.986Z,17.90
2022-09-12T12:23:27.243Z,18.00
2022-09-12T12:25:55.777Z,18.00
2022-09-12T12:28:41.297Z,18.10
2022-09-12T12:31:09.897Z,18.20
2022-09-12T12:33:56.463Z,18.30
2022-09-12T12:36:33.857Z,18.30
2022-09-12T12:39:22.135Z,18.40
2022-09-12T12:41:49.797Z,18.50
2022-09-12T12:44:36.224Z,18.60
2022-09-12T12:47:18.015Z,18.60
2022-09-12T12:49:51.898Z,18.60
2022-09-12T12:52:20.448Z,18.70
2022-09-12T12:54:57.009Z,18.80
2022-09-12T12:57:29.758Z,18.90
2022-09-12T12:59:58.934Z,19.00
2022-09-12T13:02:29.259Z,19.10
2022-09-12T13:04:59.602Z,19.10
2022-09-12T13:07:29.885Z,19.20
2022-09-12T13:09:58.499Z,19.30
2022-09-12T13:12:27.230Z,19.30
2022-09-12T13:14:55.809Z,19.40
2022-09-12T13:17:26.231Z,19.50
2022-09-12T13:20:10.843Z,19.50
2022-09-12T13:22:44.806Z,19.60
2022-09-12T13:25:20.282Z,19.70
2022-09-12T13:27:57.683Z,19.80
2022-09-12T13:30:25.415Z,19.80
2022-09-12T13:32:53.732Z,19.80
2022-09-12T13:35:25.083Z,20.00
2022-09-12T13:37:56.938Z,20.10
2022-09-12T13:40:29.865Z,20.20
2022-09-12T13:43:08.973Z,20.50
2022-09-12T13:45:38.281Z,20.90
2022-09-12T13:48:07.795Z,21.40
2022-09-12T13:50:38.683Z,21.90
2022-09-12T13:53:10.049Z,22.40
2022-09-12T13:55:40.147Z,22.80
2022-09-12T13:58:16.249Z,23.70
2022-09-12T14:00:44.951Z,24.60
2022-09-12T14:03:43.915Z,25.40
2022-09-12T14:06:12.143Z,26.20
2022-09-12T14:08:41.794Z,27.00
2022-09-12T14:11:10.986Z,27.60
2022-09-12T14:13:39.733Z,28.00
2022-09-12T14:16:09.814Z,28.40
2022-09-12T14:18:38.578Z,28.70
2022-09-12T14:21:10.344Z,28.90
2022-09-12T14:23:40.965Z,29.20
2022-09-12T14:26:11.458Z,29.50
2022-09-12T14:28:40.814Z,29.60
2022-09-12T14:31:21.366Z,29.70
2022-09-12T14:33:50.023Z,29.90
2022-09-12T14:36:22.273Z,30.00
2022-09-12T14:38:51.080Z,30.00
2022-09-12T14:41:24.852Z,30.00
2022-09-12T14:43:54.021Z,30.20
2022-09-12T14:46:26.266Z,30.30
2022-09-12T14:48:54.788Z,30.30
2022-09-12T14:51:24.257Z,30.30
2022-09-12T14:53:52.077Z,30.20
2022-09-12T14:56:22.580Z,29.60
2022-09-12T14:58:51.721Z,28.90
2022-09-12T15:01:23.649Z,28.50
2022-09-12T15:03:53.338Z,28.20
2022-09-12T15:06:23.170Z,27.80
2022-09-12T15:08:50.926Z,27.40
2022-09-12T15:11:18.571Z,26.90
2022-09-12T15:13:46.189Z,26.50
2022-09-12T15:16:15.733Z,26.10
2022-09-12T15:18:43.692Z,25.80
2022-09-12T15:21:13.205Z,25.60
2022-09-12T15:23:42.867Z,25.30
2022-09-12T15:26:12.622Z,25.10
2022-09-12T15:28:40.289Z,24.90
2022-09-12T15:31:09.387Z,24.90
2022-09-12T15:33:38.399Z,24.90
2022-09-12T15:36:12.778Z,25.00
2022-09-12T15:38:40.422Z,25.00
2022-09-12T15:41:11.166Z,25.10
2022-09-12T15:43:38.833Z,25.00
2022-09-12T15:46:06.822Z,24.80
2022-09-12T15:48:34.506Z,24.60
2022-09-12T15:51:04.864Z,24.50
2022-09-12T15:53:32.822Z,24.50
2022-09-12T15:56:00.408Z,24.40
2022-09-12T15:58:28.017Z,24.30
2022-09-12T16:00:55.640Z,24.20
2022-09-12T16:03:24.696Z,24.10
2022-09-12T16:05:56.064Z,24.00
2022-09-12T16:08:25.055Z,23.90
2022-09-12T16:10:54.486Z,23.80
2022-09-12T16:13:22.209Z,23.80
2022-09-12T16:15:49.887Z,23.70
2022-09-12T16:18:20.601Z,23.60
2022-09-12T16:20:48.554Z,23.50
2022-09-12T16:23:16.204Z,23.40
2022-09-12T16:25:45.163Z,23.40
2022-09-12T16:28:12.957Z,23.30
2022-09-12T16:30:40.678Z,23.20
2022-09-12T16:33:08.585Z,23.20
2022-09-12T16:35:36.230Z,23.10
2022-09-12T16:38:03.897Z,23.20
2022-09-12T16:40:31.569Z,23.00
2022-09-12T16:43:00.611Z,22.80
2022-09-12T16:45:28.255Z,22.70
2022-09-12T16:47:55.926Z,22.60
2022-09-12T16:50:23.766Z,22.40
2022-09-12T16:52:51.451Z,22.30
2022-09-12T16:55:19.189Z,22.20
2022-09-12T16:57:49.368Z,22.00
2022-09-12T17:00:18.590Z,21.90
2022-09-12T17:02:47.551Z,21.70
2022-09-12T17:05:15.812Z,21.60
2022-09-12T17:07:43.449Z,21.40
2022-09-12T17:10:11.117Z,21.30
2022-09-12T17:12:38.760Z,21.20
2022-09-12T17:15:06.868Z,21.00
2022-09-12T17:17:35.842Z,21.00
2022-09-12T17:20:03.554Z,20.90
2022-09-12T17:22:31.173Z,20.80
2022-09-12T17:24:58.772Z,20.70
2022-09-12T17:27:26.516Z,20.60
2022-09-12T17:29:54.162Z,20.50
2022-09-12T17:32:21.819Z,20.40
2022-09-12T17:34:50.802Z,20.30
2022-09-12T17:37:18.454Z,20.30
2022-09-12T17:39:47.261Z,20.20
2022-09-12T17:42:14.952Z,20.10
2022-09-12T17:44:42.560Z,20.10
2022-09-12T17:47:10.163Z,20.00
2022-09-12T17:49:37.776Z,19.90
2022-09-12T17:52:06.931Z,19.90
2022-09-12T17:54:34.533Z,19.90
2022-09-12T17:57:02.329Z,19.80
2022-09-12T17:59:29.955Z,19.70
2022-09-12T18:02:20.327Z,19.70
2022-09-12T18:04:48.380Z,19.60
2022-09-12T18:07:18.890Z,19.60
2022-09-12T18:09:47.799Z,19.50
2022-09-12T18:12:15.846Z,19.50
2022-09-12T18:14:43.472Z,19.50
2022-09-12T18:17:11.564Z,19.40
2022-09-12T18:19:39.422Z,19.40
2022-09-12T18:22:09.424Z,19.40
2022-09-12T18:24:38.439Z,19.30
2022-09-12T18:27:06.139Z,19.30
2022-09-12T18:29:33.761Z,19.20
2022-09-12T18:32:01.512Z,19.20
2022-09-12T18:34:29.150Z,19.20
2022-09-12T18:36:56.777Z,19.10
2022-09-12T18:39:27.677Z,19.10
2022-09-12T18:41:57.220Z,19.00
2022-09-12T18:44:24.829Z,19.00
2022-09-12T18:46:52.810Z,19.00
2022-09-12T18:49:20.439Z,18.90
2022-09-12T18:51:48.135Z,18.90
2022-09-12T18:54:17.537Z,18.80
2022-09-12T18:56:45.831Z,18.80
2022-09-12T18:59:14.995Z,18.80
2022-09-12T19:01:42.835Z,18.80
2022-09-12T19:04:11.769Z,18.70
2022-09-12T19:06:40.171Z,18.70
2022-09-12T19:09:08.994Z,18.70
2022-09-12T19:11:38.104Z,18.60
2022-09-12T19:14:05.967Z,18.70
2022-09-12T19:16:35.127Z,18.60
2022-09-12T19:19:03.062Z,18.60
2022-09-12T19:21:31.594Z,18.60
2022-09-12T19:24:00.585Z,18.60
2022-09-12T19:26:28.367Z,18.50
2022-09-12T19:28:56.316Z,18.50
2022-09-12T19:31:24.332Z,18.50
2022-09-12T19:33:53.773Z,18.50
2022-09-12T19:36:43.883Z,18.40
2022-09-12T19:39:10.612Z,18.40
2022-09-12T19:41:38.232Z,18.40
2022-09-12T19:44:05.922Z,18.40
2022-09-12T19:46:33.585Z,18.30
2022-09-12T19:49:03.333Z,18.30
2022-09-12T19:51:31.470Z,18.40
2022-09-12T19:53:59.091Z,18.30
2022-09-12T19:56:26.796Z,18.30
2022-09-12T19:58:56.726Z,18.20
2022-09-12T20:01:27.704Z,18.20
2022-09-12T20:03:55.610Z,18.20
2022-09-12T20:06:24.797Z,18.10
2022-09-12T20:08:52.412Z,18.20
2022-09-12T20:11:20.787Z,18.20
2022-09-12T20:13:48.492Z,18.10
2022-09-12T20:16:21.265Z,18.10
2022-09-12T20:18:53.589Z,18.10
2022-09-12T20:21:24.851Z,18.20
2022-09-12T20:23:53.854Z,18.10
2022-09-12T20:26:23.408Z,18.10
2022-09-12T20:28:51.770Z,18.10
2022-09-12T20:31:19.463Z,18.00
2022-09-12T20:33:51.626Z,17.90
2022-09-12T20:36:20.357Z,17.90
2022-09-12T20:38:48.736Z,17.90
2022-09-12T20:41:17.972Z,17.90
2022-09-12T20:43:45.646Z,17.90
2022-09-12T20:46:13.279Z,17.80
2022-09-12T20:48:40.951Z,17.80
2022-09-12T20:51:08.882Z,17.80
2022-09-12T20:53:36.515Z,17.70
2022-09-12T20:56:05.300Z,17.70
2022-09-12T20:58:34.719Z,17.70
2022-09-12T21:01:08.306Z,17.70
2022-09-12T21:03:37.648Z,17.70
2022-09-12T21:06:05.488Z,17.60
2022-09-12T21:08:33.530Z,17.60
2022-09-12T21:11:01.149Z,17.60
2022-09-12T21:13:28.969Z,17.60
2022-09-12T21:16:00.406Z,17.50
2022-09-12T21:18:28.380Z,17.50
2022-09-12T21:20:56.491Z,17.50
2022-09-12T21:23:24.710Z,17.50
2022-09-12T21:25:52.950Z,17.40
2022-09-12T21:28:21.098Z,17.40
2022-09-12T21:30:49.550Z,17.40
2022-09-12T21:33:19.244Z,17.40
2022-09-12T21:35:46.998Z,17.40
2022-09-12T21:38:15.150Z,17.40
2022-09-12T21:40:42.928Z,17.30
2022-09-12T21:43:12.732Z,17.30
2022-09-12T21:45:40.908Z,17.30
2022-09-12T21:48:08.569Z,17.30
2022-09-12T21:50:37.571Z,17.30
2022-09-12T21:53:05.245Z,17.30
2022-09-12T21:55:32.985Z,17.30
2022-09-12T21:58:00.654Z,17.30
2022-09-12T22:00:28.290Z,17.40
2022-09-12T22:02:56.205Z,17.30
2022-09-12T22:05:24.632Z,17.10
2022-09-12T22:07:53.629Z,17.20
2022-09-12T22:10:21.231Z,17.20
2022-09-12T22:12:48.919Z,17.20
2022-09-12T22:15:40.013Z,17.20
2022-09-12T22:18:04.260Z,17.20
2022-09-12T22:20:31.890Z,17.10
2022-09-12T22:23:22.395Z,17.10
2022-09-12T22:25:53.996Z,17.10
2022-09-12T22:28:21.689Z,17.10
2022-09-12T22:30:49.485Z,17.00
2022-09-12T22:33:17.346Z,17.00
2022-09-12T22:35:45.122Z,17.00
2022-09-12T22:38:14.120Z,17.00
2022-09-12T22:40:41.746Z,17.00
2022-09-12T22:43:09.828Z,16.90
2022-09-12T22:45:37.449Z,16.90
2022-09-12T22:48:08.938Z,16.90
2022-09-12T22:50:36.937Z,16.90
2022-09-12T22:53:04.553Z,16.90
2022-09-12T22:55:33.572Z,16.90
2022-09-12T22:58:01.294Z,16.90
2022-09-12T23:00:29.718Z,17.00
2022-09-12T23:02:58.388Z,16.80
2022-09-12T23:05:26.111Z,16.80
2022-09-12T23:07:53.754Z,16.80
2022-09-12T23:10:21.381Z,16.80
2022-09-12T23:12:50.494Z,16.80
2022-09-12T23:15:18.129Z,16.80
2022-09-12T23:17:45.765Z,16.70
2022-09-12T23:20:13.409Z,16.70
2022-09-12T23:22:41.085Z,16.70
2022-09-12T23:25:09.752Z,16.70
2022-09-12T23:27:37.376Z,16.70
2022-09-12T23:30:07.620Z,16.70
2022-09-12T23:32:35.362Z,16.70
2022-09-12T23:35:03.291Z,16.70
2022-09-12T23:37:31.006Z,16.70
2022-09-12T23:39:58.674Z,16.70
2022-09-12T23:42:26.386Z,16.70
2022-09-12T23:44:54.001Z,16.60
2022-09-12T23:47:23.018Z,16.60
2022-09-12T23:49:50.738Z,16.60
2022-09-12T23:52:18.373Z,16.50
2022-09-12T23:54:46.524Z,16.60
2022-09-12T23:57:14.398Z,16.50
2022-09-12T23:59:42.001Z,16.50
